sensor_id;sensor_type;location;lat;lon;timestamp;temperature;humidity
13091;DHT22;6611;52.604;13.438;2023-12-14T00:01:34;4.59;91.51
13091;DHT22;6611;52.604;13.438;2023-12-14T00:06:37;4.39;91.51
13091;DHT22;6611;52.604;13.438;2023-12-14T00:11:39;4.42;91.69
13091;DHT22;6611;52.604;13.438;2023-12-14T00:16:40;4.42;91.67
13091;DHT22;6611;52.604;13.438;2023-12-14T00:21:43;4.35;91.61
13091;DHT22;6611;52.604;13.438;2023-12-14T00:26:45;4.36;91.48
13091;DHT22;6611;52.604;13.438;2023-12-14T00:31:47;4.39;91.09
13091;DHT22;6611;52.604;13.438;2023-12-14T00:36:50;4.21;91.19
13091;DHT22;6611;52.604;13.438;2023-12-14T00:41:51;4.14;91.47
13091;DHT22;6611;52.604;13.438;2023-12-14T00:46:53;4.19;91.04
13091;DHT22;6611;52.604;13.438;2023-12-14T00:51:56;4.18;91.40
13091;DHT22;6611;52.604;13.438;2023-12-14T00:56:59;4.14;91.57
13091;DHT22;6611;52.604;13.438;2023-12-14T01:02:00;4.04;91.16
13091;DHT22;6611;52.604;13.438;2023-12-14T01:07:04;4.08;91.31
13091;DHT22;6611;52.604;13.438;2023-12-14T01:12:06;4.14;91.22
13091;DHT22;6611;52.604;13.438;2023-12-14T01:17:07;4.09;91.06
13091;DHT22;6611;52.604;13.438;2023-12-14T01:22:10;4.05;91.08
13091;DHT22;6611;52.604;13.438;2023-12-14T01:27:12;3.99;90.97
13091;DHT22;6611;52.604;13.438;2023-12-14T01:32:14;4.05;91.17
13091;DHT22;6611;52.604;13.438;2023-12-14T01:37:17;4.04;91.14
13091;DHT22;6611;52.604;13.438;2023-12-14T01:42:18;3.98;90.86
13091;DHT22;6611;52.604;13.438;2023-12-14T01:47:20;3.86;91.04
13091;DHT22;6611;52.604;13.438;2023-12-14T01:52:23;3.78;91.08
13091;DHT22;6611;52.604;13.438;2023-12-14T01:57:25;3.78;91.12
13091;DHT22;6611;52.604;13.438;2023-12-14T02:02:26;3.74;91.17
13091;DHT22;6611;52.604;13.438;2023-12-14T02:07:29;3.74;91.20
13091;DHT22;6611;52.604;13.438;2023-12-14T02:12:31;3.76;91.47
13091;DHT22;6611;52.604;13.438;2023-12-14T02:17:33;3.86;91.32
13091;DHT22;6611;52.604;13.438;2023-12-14T02:22:48;3.83;90.92
13091;DHT22;6611;52.604;13.438;2023-12-14T02:27:51;3.76;90.84
13091;DHT22;6611;52.604;13.438;2023-12-14T02:32:53;3.70;91.27
13091;DHT22;6611;52.604;13.438;2023-12-14T02:37:56;3.73;91.18
13091;DHT22;6611;52.604;13.438;2023-12-14T02:42:57;3.78;91.18
13091;DHT22;6611;52.604;13.438;2023-12-14T02:47:59;3.70;91.19
13091;DHT22;6611;52.604;13.438;2023-12-14T02:53:02;3.70;91.21
13091;DHT22;6611;52.604;13.438;2023-12-14T02:58:04;3.70;91.43
13091;DHT22;6611;52.604;13.438;2023-12-14T03:03:05;3.67;90.92
13091;DHT22;6611;52.604;13.438;2023-12-14T03:08:08;3.67;91.02
13091;DHT22;6611;52.604;13.438;2023-12-14T03:13:10;3.70;91.58
13091;DHT22;6611;52.604;13.438;2023-12-14T03:18:12;3.80;91.62
13091;DHT22;6611;52.604;13.438;2023-12-14T03:23:15;3.78;91.25
13091;DHT22;6611;52.604;13.438;2023-12-14T03:28:16;3.76;90.83
13091;DHT22;6611;52.604;13.438;2023-12-14T03:33:18;3.78;90.83
13091;DHT22;6611;52.604;13.438;2023-12-14T03:38:22;3.70;90.80
13091;DHT22;6611;52.604;13.438;2023-12-14T03:43:24;3.70;91.12
13091;DHT22;6611;52.604;13.438;2023-12-14T03:48:25;3.70;90.91
13091;DHT22;6611;52.604;13.438;2023-12-14T03:53:28;3.70;91.13
13091;DHT22;6611;52.604;13.438;2023-12-14T03:58:30;3.73;91.19
13091;DHT22;6611;52.604;13.438;2023-12-14T04:03:31;3.78;91.40
13091;DHT22;6611;52.604;13.438;2023-12-14T04:08:34;3.90;91.13
13091;DHT22;6611;52.604;13.438;2023-12-14T04:13:38;3.88;91.03
13091;DHT22;6611;52.604;13.438;2023-12-14T04:18:39;3.86;90.86
13091;DHT22;6611;52.604;13.438;2023-12-14T04:23:42;3.88;91.39
13091;DHT22;6611;52.604;13.438;2023-12-14T04:28:46;3.88;90.88
13091;DHT22;6611;52.604;13.438;2023-12-14T04:33:47;3.87;91.03
13091;DHT22;6611;52.604;13.438;2023-12-14T04:38:50;3.83;90.93
13091;DHT22;6611;52.604;13.438;2023-12-14T04:43:52;3.87;90.94
13091;DHT22;6611;52.604;13.438;2023-12-14T04:48:54;3.97;91.11
13091;DHT22;6611;52.604;13.438;2023-12-14T04:53:57;3.97;90.64
13091;DHT22;6611;52.604;13.438;2023-12-14T04:58:59;3.93;90.89
13091;DHT22;6611;52.604;13.438;2023-12-14T05:04:00;3.84;90.96
13091;DHT22;6611;52.604;13.438;2023-12-14T05:09:04;3.88;91.11
13091;DHT22;6611;52.604;13.438;2023-12-14T05:14:07;3.88;90.96
13091;DHT22;6611;52.604;13.438;2023-12-14T05:19:08;3.88;91.03
13091;DHT22;6611;52.604;13.438;2023-12-14T05:24:11;3.93;90.89
13091;DHT22;6611;52.604;13.438;2023-12-14T05:29:14;3.90;91.12
13091;DHT22;6611;52.604;13.438;2023-12-14T05:34:17;3.94;91.19
13091;DHT22;6611;52.604;13.438;2023-12-14T05:39:20;3.91;90.98
13091;DHT22;6611;52.604;13.438;2023-12-14T05:44:23;3.83;91.21
13091;DHT22;6611;52.604;13.438;2023-12-14T05:49:25;3.88;90.75
13091;DHT22;6611;52.604;13.438;2023-12-14T05:54:28;3.91;91.06
13091;DHT22;6611;52.604;13.438;2023-12-14T05:59:30;3.86;91.36
13091;DHT22;6611;52.604;13.438;2023-12-14T06:04:32;3.81;91.17
13091;DHT22;6611;52.604;13.438;2023-12-14T06:09:35;3.83;91.19
13091;DHT22;6611;52.604;13.438;2023-12-14T06:14:37;3.86;91.28
13091;DHT22;6611;52.604;13.438;2023-12-14T06:19:38;3.84;90.93
13091;DHT22;6611;52.604;13.438;2023-12-14T06:24:41;3.88;90.95
13091;DHT22;6611;52.604;13.438;2023-12-14T06:29:43;3.87;90.74
13091;DHT22;6611;52.604;13.438;2023-12-14T06:34:45;3.86;90.89
13091;DHT22;6611;52.604;13.438;2023-12-14T06:39:48;3.86;90.83
13091;DHT22;6611;52.604;13.438;2023-12-14T06:44:50;3.87;90.85
13091;DHT22;6611;52.604;13.438;2023-12-14T06:49:51;3.91;90.93
13091;DHT22;6611;52.604;13.438;2023-12-14T06:54:54;3.88;91.02
13091;DHT22;6611;52.604;13.438;2023-12-14T06:59:56;3.93;91.34
13091;DHT22;6611;52.604;13.438;2023-12-14T07:04:58;3.98;91.11
13091;DHT22;6611;52.604;13.438;2023-12-14T07:10:01;3.99;90.87
13091;DHT22;6611;52.604;13.438;2023-12-14T07:15:03;3.97;90.59
13091;DHT22;6611;52.604;13.438;2023-12-14T07:20:07;3.90;90.80
13091;DHT22;6611;52.604;13.438;2023-12-14T07:25:10;3.93;90.91
13091;DHT22;6611;52.604;13.438;2023-12-14T07:30:12;3.99;91.09
13091;DHT22;6611;52.604;13.438;2023-12-14T07:35:14;4.05;91.08
13091;DHT22;6611;52.604;13.438;2023-12-14T07:40:17;4.04;90.39
13091;DHT22;6611;52.604;13.438;2023-12-14T07:45:18;4.11;90.26
13091;DHT22;6611;52.604;13.438;2023-12-14T07:50:20;4.04;90.48
13091;DHT22;6611;52.604;13.438;2023-12-14T07:55:23;4.05;90.68
13091;DHT22;6611;52.604;13.438;2023-12-14T08:00:25;4.06;90.36
13091;DHT22;6611;52.604;13.438;2023-12-14T08:05:26;3.98;90.35
13091;DHT22;6611;52.604;13.438;2023-12-14T08:10:29;4.06;90.28
13091;DHT22;6611;52.604;13.438;2023-12-14T08:15:31;4.08;90.67
13091;DHT22;6611;52.604;13.438;2023-12-14T08:20:33;4.09;90.54
13091;DHT22;6611;52.604;13.438;2023-12-14T08:25:36;4.11;90.33
13091;DHT22;6611;52.604;13.438;2023-12-14T08:30:37;4.15;90.37
13091;DHT22;6611;52.604;13.438;2023-12-14T08:35:39;4.06;90.11
13091;DHT22;6611;52.604;13.438;2023-12-14T08:40:42;4.11;90.16
13091;DHT22;6611;52.604;13.438;2023-12-14T08:45:44;4.05;90.10
13091;DHT22;6611;52.604;13.438;2023-12-14T08:50:46;4.09;89.95
13091;DHT22;6611;52.604;13.438;2023-12-14T08:55:49;4.02;90.40
13091;DHT22;6611;52.604;13.438;2023-12-14T09:00:51;4.11;90.10
13091;DHT22;6611;52.604;13.438;2023-12-14T09:05:53;4.21;90.16
13091;DHT22;6611;52.604;13.438;2023-12-14T09:10:56;4.21;90.04
13091;DHT22;6611;52.604;13.438;2023-12-14T09:15:58;4.15;89.17
13091;DHT22;6611;52.604;13.438;2023-12-14T09:20:59;4.11;89.89
13091;DHT22;6611;52.604;13.438;2023-12-14T09:26:03;4.15;89.88
13091;DHT22;6611;52.604;13.438;2023-12-14T09:31:06;4.12;89.97
13091;DHT22;6611;52.604;13.438;2023-12-14T09:36:08;4.23;89.37
13091;DHT22;6611;52.604;13.438;2023-12-14T09:41:11;4.25;89.90
13091;DHT22;6611;52.604;13.438;2023-12-14T09:46:13;4.26;89.71
13091;DHT22;6611;52.604;13.438;2023-12-14T09:51:16;4.40;88.99
13091;DHT22;6611;52.604;13.438;2023-12-14T09:56:19;4.33;88.42
13091;DHT22;6611;52.604;13.438;2023-12-14T10:01:22;4.32;87.95
13091;DHT22;6611;52.604;13.438;2023-12-14T10:06:24;4.36;88.13
13091;DHT22;6611;52.604;13.438;2023-12-14T10:11:27;4.42;88.17
13091;DHT22;6611;52.604;13.438;2023-12-14T10:16:30;4.39;88.50
13091;DHT22;6611;52.604;13.438;2023-12-14T10:21:31;4.31;88.10
13091;DHT22;6611;52.604;13.438;2023-12-14T10:26:35;4.28;88.17
13091;DHT22;6611;52.604;13.438;2023-12-14T10:31:37;4.32;88.74
13091;DHT22;6611;52.604;13.438;2023-12-14T10:36:40;4.31;89.44
13091;DHT22;6611;52.604;13.438;2023-12-14T10:41:43;4.39;89.51
13091;DHT22;6611;52.604;13.438;2023-12-14T10:46:48;4.31;88.54
13091;DHT22;6611;52.604;13.438;2023-12-14T10:51:52;4.31;89.37
13091;DHT22;6611;52.604;13.438;2023-12-14T10:56:56;4.32;88.92
13091;DHT22;6611;52.604;13.438;2023-12-14T11:01:58;4.32;88.91
13091;DHT22;6611;52.604;13.438;2023-12-14T11:07:00;4.33;88.97
13091;DHT22;6611;52.604;13.438;2023-12-14T11:12:03;4.42;88.70
13091;DHT22;6611;52.604;13.438;2023-12-14T11:17:06;4.39;88.63
13091;DHT22;6611;52.604;13.438;2023-12-14T11:22:13;4.48;89.19
13091;DHT22;6611;52.604;13.438;2023-12-14T11:27:28;4.49;88.01
13091;DHT22;6611;52.604;13.438;2023-12-14T11:32:31;4.60;88.04
13091;DHT22;6611;52.604;13.438;2023-12-14T11:37:32;4.60;88.46
13091;DHT22;6611;52.604;13.438;2023-12-14T11:42:36;4.68;87.63
13091;DHT22;6611;52.604;13.438;2023-12-14T11:47:38;4.67;88.02
13091;DHT22;6611;52.604;13.438;2023-12-14T11:52:40;4.66;88.43
13091;DHT22;6611;52.604;13.438;2023-12-14T11:57:46;4.67;87.62
13091;DHT22;6611;52.604;13.438;2023-12-14T12:02:48;4.59;87.91
13091;DHT22;6611;52.604;13.438;2023-12-14T12:07:57;4.63;88.16
13091;DHT22;6611;52.604;13.438;2023-12-14T12:13:01;4.56;88.38
13091;DHT22;6611;52.604;13.438;2023-12-14T12:18:07;4.66;88.55
13091;DHT22;6611;52.604;13.438;2023-12-14T12:23:09;4.71;88.82
13091;DHT22;6611;52.604;13.438;2023-12-14T12:28:12;4.71;87.87
13091;DHT22;6611;52.604;13.438;2023-12-14T12:33:14;4.64;88.34
13091;DHT22;6611;52.604;13.438;2023-12-14T12:38:16;4.61;88.36
13091;DHT22;6611;52.604;13.438;2023-12-14T12:43:20;4.60;88.11
13091;DHT22;6611;52.604;13.438;2023-12-14T12:48:22;4.54;87.92
13091;DHT22;6611;52.604;13.438;2023-12-14T12:53:23;4.59;88.42
13091;DHT22;6611;52.604;13.438;2023-12-14T12:58:28;4.40;87.99
13091;DHT22;6611;52.604;13.438;2023-12-14T13:03:30;4.36;88.38
13091;DHT22;6611;52.604;13.438;2023-12-14T13:08:31;4.39;88.05
13091;DHT22;6611;52.604;13.438;2023-12-14T13:13:34;4.39;87.74
13091;DHT22;6611;52.604;13.438;2023-12-14T13:18:36;4.36;88.68
13091;DHT22;6611;52.604;13.438;2023-12-14T13:23:38;4.42;88.68
13091;DHT22;6611;52.604;13.438;2023-12-14T13:28:41;4.40;88.29
13091;DHT22;6611;52.604;13.438;2023-12-14T13:33:42;4.42;88.10
13091;DHT22;6611;52.604;13.438;2023-12-14T13:38:44;4.42;88.62
13091;DHT22;6611;52.604;13.438;2023-12-14T13:43:47;4.43;88.65
13091;DHT22;6611;52.604;13.438;2023-12-14T13:48:49;4.36;89.03
13091;DHT22;6611;52.604;13.438;2023-12-14T13:53:50;4.48;89.00
13091;DHT22;6611;52.604;13.438;2023-12-14T13:58:53;4.46;88.71
13091;DHT22;6611;52.604;13.438;2023-12-14T14:03:55;4.48;88.54
13091;DHT22;6611;52.604;13.438;2023-12-14T14:08:57;4.43;88.50
13091;DHT22;6611;52.604;13.438;2023-12-14T14:14:00;4.36;89.11
13091;DHT22;6611;52.604;13.438;2023-12-14T14:19:01;4.35;88.54
13091;DHT22;6611;52.604;13.438;2023-12-14T14:24:03;4.32;88.60
13091;DHT22;6611;52.604;13.438;2023-12-14T14:29:06;4.31;88.22
13091;DHT22;6611;52.604;13.438;2023-12-14T14:34:11;4.26;88.10
13091;DHT22;6611;52.604;13.438;2023-12-14T14:39:13;4.29;87.69
13091;DHT22;6611;52.604;13.438;2023-12-14T14:44:16;4.19;88.51
13091;DHT22;6611;52.604;13.438;2023-12-14T14:49:18;4.18;88.10
13091;DHT22;6611;52.604;13.438;2023-12-14T14:54:20;4.14;89.02
13091;DHT22;6611;52.604;13.438;2023-12-14T14:59:23;4.16;88.56
13091;DHT22;6611;52.604;13.438;2023-12-14T15:04:24;4.23;89.25
13091;DHT22;6611;52.604;13.438;2023-12-14T15:09:26;4.31;89.40
13091;DHT22;6611;52.604;13.438;2023-12-14T15:14:29;4.33;88.99
13091;DHT22;6611;52.604;13.438;2023-12-14T15:19:30;4.32;88.98
13091;DHT22;6611;52.604;13.438;2023-12-14T15:24:32;4.25;88.96
13091;DHT22;6611;52.604;13.438;2023-12-14T15:29:35;4.22;88.73
13091;DHT22;6611;52.604;13.438;2023-12-14T15:34:37;4.25;89.01
13091;DHT22;6611;52.604;13.438;2023-12-14T15:39:39;4.25;89.52
13091;DHT22;6611;52.604;13.438;2023-12-14T15:44:42;4.25;89.32
13091;DHT22;6611;52.604;13.438;2023-12-14T15:49:44;4.21;89.53
13091;DHT22;6611;52.604;13.438;2023-12-14T15:54:46;4.19;89.42
13091;DHT22;6611;52.604;13.438;2023-12-14T15:59:49;4.11;89.38
13091;DHT22;6611;52.604;13.438;2023-12-14T16:04:51;4.12;89.66
13091;DHT22;6611;52.604;13.438;2023-12-14T16:09:53;4.19;89.52
13091;DHT22;6611;52.604;13.438;2023-12-14T16:14:56;4.14;89.45
13091;DHT22;6611;52.604;13.438;2023-12-14T16:19:57;4.09;89.79
13091;DHT22;6611;52.604;13.438;2023-12-14T16:24:59;4.14;89.67
13091;DHT22;6611;52.604;13.438;2023-12-14T16:30:03;4.14;90.01
13091;DHT22;6611;52.604;13.438;2023-12-14T16:35:07;4.21;89.23
13091;DHT22;6611;52.604;13.438;2023-12-14T16:40:09;4.06;88.85
13091;DHT22;6611;52.604;13.438;2023-12-14T16:45:12;4.04;89.22
13091;DHT22;6611;52.604;13.438;2023-12-14T16:50:14;3.97;89.22
13091;DHT22;6611;52.604;13.438;2023-12-14T16:55:16;3.97;90.10
13091;DHT22;6611;52.604;13.438;2023-12-14T17:00:19;3.95;89.60
13091;DHT22;6611;52.604;13.438;2023-12-14T17:05:20;3.86;89.06
13091;DHT22;6611;52.604;13.438;2023-12-14T17:10:22;3.84;89.37
13091;DHT22;6611;52.604;13.438;2023-12-14T17:15:25;3.91;89.48
13091;DHT22;6611;52.604;13.438;2023-12-14T17:20:27;3.94;89.74
13091;DHT22;6611;52.604;13.438;2023-12-14T17:25:29;4.05;89.67
13091;DHT22;6611;52.604;13.438;2023-12-14T17:30:33;4.05;89.01
13091;DHT22;6611;52.604;13.438;2023-12-14T17:35:34;4.06;88.65
13091;DHT22;6611;52.604;13.438;2023-12-14T17:40:36;3.95;88.89
13091;DHT22;6611;52.604;13.438;2023-12-14T17:45:39;3.86;88.65
13091;DHT22;6611;52.604;13.438;2023-12-14T17:50:40;3.86;88.84
13091;DHT22;6611;52.604;13.438;2023-12-14T17:55:42;3.77;88.79
13091;DHT22;6611;52.604;13.438;2023-12-14T18:00:45;3.74;88.95
13091;DHT22;6611;52.604;13.438;2023-12-14T18:05:47;3.84;89.27
13091;DHT22;6611;52.604;13.438;2023-12-14T18:10:48;3.78;89.07
13091;DHT22;6611;52.604;13.438;2023-12-14T18:15:51;3.74;89.47
13091;DHT22;6611;52.604;13.438;2023-12-14T18:20:53;3.78;89.24
13091;DHT22;6611;52.604;13.438;2023-12-14T18:25:55;3.76;88.82
13091;DHT22;6611;52.604;13.438;2023-12-14T18:30:58;3.70;89.33
13091;DHT22;6611;52.604;13.438;2023-12-14T18:36:01;3.63;89.21
13091;DHT22;6611;52.604;13.438;2023-12-14T18:41:03;3.56;88.85
13091;DHT22;6611;52.604;13.438;2023-12-14T18:46:07;3.62;89.48
13091;DHT22;6611;52.604;13.438;2023-12-14T18:51:09;3.67;89.29
13091;DHT22;6611;52.604;13.438;2023-12-14T18:56:11;3.62;88.92
13091;DHT22;6611;52.604;13.438;2023-12-14T19:01:14;3.59;89.16
13091;DHT22;6611;52.604;13.438;2023-12-14T19:06:16;3.60;89.50
13091;DHT22;6611;52.604;13.438;2023-12-14T19:11:18;3.60;89.61
13091;DHT22;6611;52.604;13.438;2023-12-14T19:16:26;3.60;89.47
13091;DHT22;6611;52.604;13.438;2023-12-14T19:21:30;3.58;89.00
13091;DHT22;6611;52.604;13.438;2023-12-14T19:26:31;3.52;89.15
13091;DHT22;6611;52.604;13.438;2023-12-14T19:31:34;3.51;89.60
13091;DHT22;6611;52.604;13.438;2023-12-14T19:36:36;3.49;89.69
13091;DHT22;6611;52.604;13.438;2023-12-14T19:41:38;3.49;89.44
13091;DHT22;6611;52.604;13.438;2023-12-14T19:46:41;3.49;89.89
13091;DHT22;6611;52.604;13.438;2023-12-14T19:51:42;3.52;89.50
13091;DHT22;6611;52.604;13.438;2023-12-14T19:56:44;3.46;89.35
13091;DHT22;6611;52.604;13.438;2023-12-14T20:01:47;3.39;89.23
13091;DHT22;6611;52.604;13.438;2023-12-14T20:06:49;3.40;89.30
13091;DHT22;6611;52.604;13.438;2023-12-14T20:11:54;3.38;89.91
13091;DHT22;6611;52.604;13.438;2023-12-14T20:16:57;3.34;89.11
13091;DHT22;6611;52.604;13.438;2023-12-14T20:21:59;3.35;88.97
13091;DHT22;6611;52.604;13.438;2023-12-14T20:27:01;3.35;89.47
13091;DHT22;6611;52.604;13.438;2023-12-14T20:32:05;3.34;88.81
13091;DHT22;6611;52.604;13.438;2023-12-14T20:37:06;3.35;89.30
13091;DHT22;6611;52.604;13.438;2023-12-14T20:42:08;3.34;89.22
13091;DHT22;6611;52.604;13.438;2023-12-14T20:47:11;3.31;88.65
13091;DHT22;6611;52.604;13.438;2023-12-14T20:52:13;3.26;89.18
13091;DHT22;6611;52.604;13.438;2023-12-14T20:57:14;3.32;89.64
13091;DHT22;6611;52.604;13.438;2023-12-14T21:02:17;3.35;89.45
13091;DHT22;6611;52.604;13.438;2023-12-14T21:07:19;3.28;89.00
13091;DHT22;6611;52.604;13.438;2023-12-14T21:12:21;3.25;89.88
13091;DHT22;6611;52.604;13.438;2023-12-14T21:17:25;3.22;89.41
13091;DHT22;6611;52.604;13.438;2023-12-14T21:22:26;3.25;89.08
13091;DHT22;6611;52.604;13.438;2023-12-14T21:27:28;3.26;89.71
13091;DHT22;6611;52.604;13.438;2023-12-14T21:32:50;3.28;89.15
13091;DHT22;6611;52.604;13.438;2023-12-14T21:37:52;3.32;89.13
13091;DHT22;6611;52.604;13.438;2023-12-14T21:42:54;3.28;89.03
13091;DHT22;6611;52.604;13.438;2023-12-14T21:47:57;3.24;89.07
13091;DHT22;6611;52.604;13.438;2023-12-14T21:52:59;3.31;88.76
13091;DHT22;6611;52.604;13.438;2023-12-14T21:58:00;3.35;88.67
13091;DHT22;6611;52.604;13.438;2023-12-14T22:03:03;3.34;88.62
13091;DHT22;6611;52.604;13.438;2023-12-14T22:08:05;3.15;89.55
13091;DHT22;6611;52.604;13.438;2023-12-14T22:13:07;3.12;89.90
13091;DHT22;6611;52.604;13.438;2023-12-14T22:18:09;3.31;89.87
13091;DHT22;6611;52.604;13.438;2023-12-14T22:23:11;3.19;89.73
13091;DHT22;6611;52.604;13.438;2023-12-14T22:28:13;3.18;89.98
13091;DHT22;6611;52.604;13.438;2023-12-14T22:33:16;3.14;90.15
13091;DHT22;6611;52.604;13.438;2023-12-14T22:38:18;3.18;89.65
13091;DHT22;6611;52.604;13.438;2023-12-14T22:43:19;3.18;90.01
13091;DHT22;6611;52.604;13.438;2023-12-14T22:48:22;3.09;90.20
13091;DHT22;6611;52.604;13.438;2023-12-14T22:53:24;3.11;89.95
13091;DHT22;6611;52.604;13.438;2023-12-14T22:58:26;3.17;89.84
13091;DHT22;6611;52.604;13.438;2023-12-14T23:03:28;3.12;89.63
13091;DHT22;6611;52.604;13.438;2023-12-14T23:08:30;3.14;89.52
13091;DHT22;6611;52.604;13.438;2023-12-14T23:13:32;3.12;89.39
13091;DHT22;6611;52.604;13.438;2023-12-14T23:18:35;3.22;89.32
13091;DHT22;6611;52.604;13.438;2023-12-14T23:23:36;3.12;89.13
13091;DHT22;6611;52.604;13.438;2023-12-14T23:28:38;3.15;89.26
13091;DHT22;6611;52.604;13.438;2023-12-14T23:33:41;3.17;89.07
13091;DHT22;6611;52.604;13.438;2023-12-14T23:38:43;3.14;89.03
13091;DHT22;6611;52.604;13.438;2023-12-14T23:43:44;3.09;88.93
13091;DHT22;6611;52.604;13.438;2023-12-14T23:48:47;3.12;89.30
13091;DHT22;6611;52.604;13.438;2023-12-14T23:53:49;3.12;88.91
13091;DHT22;6611;52.604;13.438;2023-12-14T23:58:51;3.18;88.94
